createdAt,value
2023-04-23T00:00:56.175Z,23.6050
2023-04-23T00:01:57.818Z,23.5915
2023-04-23T00:02:59.873Z,23.5873
2023-04-23T00:04:01.474Z,23.5919
2023-04-23T00:05:02.784Z,23.5769
2023-04-23T00:06:04.467Z,23.5735
2023-04-23T00:07:06.013Z,23.5650
2023-04-23T00:08:07.794Z,23.5515
2023-04-23T00:09:09.335Z,23.5400
2023-04-23T00:10:11.007Z,23.5681
2023-04-23T00:11:13.192Z,23.5838
2023-04-23T00:12:14.282Z,23.5973
2023-04-23T00:13:15.909Z,23.5865
2023-04-23T00:14:17.629Z,23.5915
2023-04-23T00:15:19.719Z,23.5758
2023-04-23T00:16:20.887Z,23.5538
2023-04-23T00:17:22.492Z,23.5612
2023-04-23T00:18:24.154Z,23.5535
2023-04-23T00:19:25.828Z,23.5450
2023-04-23T00:20:27.405Z,23.5400
2023-04-23T00:21:29.030Z,23.5346
2023-04-23T00:22:30.737Z,23.5223
2023-04-23T00:23:32.447Z,23.5212
2023-04-23T00:24:34.330Z,23.5415
2023-04-23T00:25:35.590Z,23.5631
2023-04-23T00:26:37.313Z,23.5815
2023-04-23T00:27:38.931Z,23.5954
2023-04-23T00:28:41.340Z,23.5904
2023-04-23T00:29:42.215Z,23.6081
2023-04-23T00:30:43.883Z,23.5965
2023-04-23T00:31:45.485Z,23.5846
2023-04-23T00:32:47.330Z,23.5758
2023-04-23T00:33:48.736Z,23.5604
2023-04-23T00:34:50.770Z,23.5508
2023-04-23T00:35:52.018Z,23.5419
2023-04-23T00:36:53.733Z,23.5277
2023-04-23T00:37:55.290Z,23.5238
2023-04-23T00:38:57.027Z,23.5215
2023-04-23T00:39:58.764Z,23.5531
2023-04-23T00:41:00.353Z,23.5808
2023-04-23T00:42:01.878Z,23.5815
2023-04-23T00:43:03.568Z,23.5823
2023-04-23T00:44:05.325Z,23.5923
2023-04-23T00:45:06.861Z,23.5850
2023-04-23T00:46:09.314Z,23.5812
2023-04-23T00:47:10.072Z,23.5638
2023-04-23T00:48:11.805Z,23.5569
2023-04-23T00:49:14.323Z,23.5469
2023-04-23T00:50:15.163Z,23.5381
2023-04-23T00:51:17.370Z,23.5408
2023-04-23T00:52:18.359Z,23.5335
2023-04-23T00:53:19.982Z,23.5308
2023-04-23T00:54:21.570Z,23.5481
2023-04-23T00:55:23.331Z,23.5681
2023-04-23T00:56:24.960Z,23.5796
2023-04-23T00:57:26.594Z,23.5754
2023-04-23T00:58:28.140Z,23.5688
2023-04-23T00:59:29.817Z,23.5531
2023-04-23T01:00:32.319Z,23.5377
2023-04-23T01:01:33.251Z,23.5335
2023-04-23T01:02:34.812Z,23.5242
2023-04-23T01:03:36.682Z,23.5204
2023-04-23T01:04:38.177Z,23.5204
2023-04-23T01:05:39.853Z,23.5296
2023-04-23T01:06:41.472Z,23.5535
2023-04-23T01:07:43.079Z,23.5769
2023-04-23T01:08:44.727Z,23.5877
2023-04-23T01:09:46.396Z,23.5969
2023-04-23T01:10:48.102Z,23.6038
2023-04-23T01:11:49.755Z,23.5938
2023-04-23T01:12:51.277Z,23.5812
2023-04-23T01:13:52.991Z,23.5631
2023-04-23T01:14:54.538Z,23.5458
2023-04-23T01:15:56.268Z,23.5392
2023-04-23T01:16:58.874Z,23.5135
2023-04-23T01:17:59.593Z,23.4988
2023-04-23T01:19:01.084Z,23.4954
2023-04-23T01:20:02.746Z,23.5081
2023-04-23T01:21:04.467Z,23.5292
2023-04-23T01:22:06.139Z,23.5515
2023-04-23T01:23:07.763Z,23.5715
2023-04-23T01:24:09.367Z,23.5738
2023-04-23T01:25:10.977Z,23.5746
2023-04-23T01:26:13.592Z,23.5612
2023-04-23T01:27:14.341Z,23.5569
2023-04-23T01:28:15.956Z,23.5362
2023-04-23T01:29:17.599Z,23.5162
2023-04-23T01:30:19.232Z,23.5158
2023-04-23T01:31:20.966Z,23.5035
2023-04-23T01:32:22.647Z,23.4827
2023-04-23T01:33:24.118Z,23.4842
2023-04-23T01:34:26.778Z,23.5169
2023-04-23T01:35:27.343Z,23.5400
2023-04-23T01:36:29.359Z,23.5708
2023-04-23T01:37:30.818Z,23.5973
2023-04-23T01:38:33.295Z,23.5835
2023-04-23T01:39:33.996Z,23.5927
2023-04-23T01:40:36.014Z,23.5885
2023-04-23T01:41:37.237Z,23.5692
2023-04-23T01:42:38.944Z,23.5550
2023-04-23T01:43:40.558Z,23.5442
2023-04-23T01:44:42.568Z,23.5365
2023-04-23T01:45:43.914Z,23.5173
2023-04-23T01:46:45.432Z,23.5200
2023-04-23T01:47:47.224Z,23.5077
2023-04-23T01:48:48.762Z,23.5073
2023-04-23T01:49:50.397Z,23.5335
2023-04-23T01:50:52.141Z,23.5685
2023-04-23T01:51:53.672Z,23.5796
2023-04-23T01:52:55.406Z,23.5831
2023-04-23T01:53:56.918Z,23.5619
2023-04-23T01:54:59.038Z,23.5458
2023-04-23T01:56:00.236Z,23.5331
2023-04-23T01:57:01.880Z,23.5265
2023-04-23T01:58:03.505Z,23.5227
2023-04-23T01:59:06.466Z,23.5092
2023-04-23T02:00:06.760Z,23.5027
2023-04-23T02:01:09.492Z,23.5081
2023-04-23T02:02:10.069Z,23.5131
2023-04-23T02:03:11.892Z,23.5296
2023-04-23T02:04:13.380Z,23.5623
2023-04-23T02:05:15.181Z,23.5569
2023-04-23T02:06:16.613Z,23.5408
2023-04-23T02:07:18.286Z,23.5400
2023-04-23T02:08:19.938Z,23.5331
2023-04-23T02:09:22.649Z,23.5085
2023-04-23T02:10:23.163Z,23.5054
2023-04-23T02:11:25.096Z,23.4962
2023-04-23T02:12:26.584Z,23.4931
2023-04-23T02:13:28.514Z,23.4769
2023-04-23T02:14:29.756Z,23.4808
2023-04-23T02:15:31.487Z,23.5046
2023-04-23T02:16:33.136Z,23.5265
2023-04-23T02:17:34.784Z,23.5400
2023-04-23T02:18:36.366Z,23.5458
2023-04-23T02:19:38.083Z,23.5431
2023-04-23T02:20:39.666Z,23.5323
2023-04-23T02:21:41.422Z,23.5196
2023-04-23T02:22:43.882Z,23.5081
2023-04-23T02:23:44.664Z,23.4973
2023-04-23T02:24:46.306Z,23.4769
2023-04-23T02:25:48.004Z,23.4742
2023-04-23T02:26:49.549Z,23.4712
2023-04-23T02:27:51.218Z,23.4900
2023-04-23T02:28:53.010Z,23.5169
2023-04-23T02:29:54.499Z,23.5450
2023-04-23T02:30:56.090Z,23.5592
2023-04-23T02:31:57.930Z,23.5562
2023-04-23T02:32:59.437Z,23.5538
2023-04-23T02:34:01.029Z,23.5465
2023-04-23T02:35:02.645Z,23.5227
2023-04-23T02:36:04.308Z,23.5104
2023-04-23T02:37:06.957Z,23.5062
2023-04-23T02:38:07.521Z,23.4954
2023-04-23T02:39:09.102Z,23.4850
2023-04-23T02:40:10.907Z,23.4881
2023-04-23T02:41:12.928Z,23.4946
2023-04-23T02:42:14.204Z,23.5038
2023-04-23T02:43:15.783Z,23.5012
2023-04-23T02:44:17.426Z,23.5173
2023-04-23T02:45:19.088Z,23.5550
2023-04-23T02:46:20.780Z,23.5488
2023-04-23T02:47:22.447Z,23.5331
2023-04-23T02:48:24.031Z,23.5262
2023-04-23T02:49:25.650Z,23.5138
2023-04-23T02:50:27.305Z,23.4885
2023-04-23T02:51:29.509Z,23.4800
2023-04-23T02:52:30.579Z,23.4535
2023-04-23T02:53:32.217Z,23.4323
2023-04-23T02:54:33.829Z,23.4546
2023-04-23T02:55:35.500Z,23.4992
2023-04-23T02:56:37.144Z,23.5362
2023-04-23T02:57:38.932Z,23.5777
2023-04-23T02:58:40.392Z,23.6023
2023-04-23T02:59:42.118Z,23.5850
2023-04-23T03:00:43.725Z,23.5708
2023-04-23T03:01:45.394Z,23.5458
2023-04-23T03:02:47.126Z,23.5285
2023-04-23T03:03:48.869Z,23.5250
2023-04-23T03:04:50.256Z,23.5031
2023-04-23T03:05:51.926Z,23.4885
2023-04-23T03:06:53.639Z,23.4738
2023-04-23T03:07:55.936Z,23.4831
2023-04-23T03:08:56.812Z,23.5088
2023-04-23T03:09:58.539Z,23.5300
2023-04-23T03:11:00.167Z,23.5565
2023-04-23T03:12:02.486Z,23.5842
2023-04-23T03:13:03.454Z,23.5719
2023-04-23T03:14:05.140Z,23.5546
2023-04-23T03:15:06.706Z,23.5362
2023-04-23T03:16:08.934Z,23.4946
2023-04-23T03:17:10.060Z,23.4873
2023-04-23T03:18:11.716Z,23.4762
2023-04-23T03:19:13.345Z,23.4538
2023-04-23T03:20:15.914Z,23.4669
2023-04-23T03:21:16.557Z,23.4969
2023-04-23T03:22:18.307Z,23.5123
2023-04-23T03:23:19.926Z,23.5469
2023-04-23T03:24:21.559Z,23.5869
2023-04-23T03:25:23.117Z,23.5950
2023-04-23T03:26:24.828Z,23.5642
2023-04-23T03:27:26.481Z,23.5596
2023-04-23T03:28:28.162Z,23.5312
2023-04-23T03:29:29.707Z,23.5069
2023-04-23T03:30:31.381Z,23.4842
2023-04-23T03:31:32.975Z,23.4869
2023-04-23T03:32:34.714Z,23.4735
2023-04-23T03:33:36.341Z,23.4888
2023-04-23T03:34:37.952Z,23.5100
2023-04-23T03:35:39.594Z,23.5481
2023-04-23T03:36:41.204Z,23.5677
2023-04-23T03:37:42.907Z,23.5865
2023-04-23T03:38:44.596Z,23.5796
2023-04-23T03:39:46.147Z,23.5458
2023-04-23T03:40:47.843Z,23.5069
2023-04-23T03:41:49.418Z,23.4981
2023-04-23T03:42:51.169Z,23.4869
2023-04-23T03:43:53.430Z,23.4904
2023-04-23T03:44:54.371Z,23.4815
2023-04-23T03:45:56.104Z,23.4708
2023-04-23T03:46:58.402Z,23.4758
2023-04-23T03:47:59.428Z,23.5212
2023-04-23T03:49:01.454Z,23.5531
2023-04-23T03:50:02.604Z,23.5704
2023-04-23T03:51:04.229Z,23.5681
2023-04-23T03:52:05.908Z,23.5735
2023-04-23T03:53:07.596Z,23.5608
2023-04-23T03:54:09.128Z,23.5335
2023-04-23T03:55:10.787Z,23.5377
2023-04-23T03:56:12.397Z,23.5642
2023-04-23T03:57:14.016Z,23.6408
2023-04-23T03:58:15.700Z,23.7612
2023-04-23T03:59:17.333Z,23.8315
2023-04-23T04:00:19.032Z,23.9254
2023-04-23T04:01:20.594Z,24.0258
2023-04-23T04:02:22.408Z,24.1115
2023-04-23T04:03:25.185Z,24.1600
2023-04-23T04:04:25.832Z,24.1900
2023-04-23T04:05:27.309Z,24.2504
2023-04-23T04:06:28.914Z,24.3050
2023-04-23T04:07:30.464Z,24.3823
2023-04-23T04:08:32.133Z,24.4988
2023-04-23T04:09:33.764Z,24.6331
2023-04-23T04:10:35.932Z,24.7627
2023-04-23T04:11:37.410Z,24.8846
2023-04-23T04:12:38.739Z,24.9769
2023-04-23T04:13:40.370Z,25.0138
2023-04-23T04:14:42.301Z,25.0577
2023-04-23T04:15:44.459Z,25.0827
2023-04-23T04:16:45.368Z,25.1388
2023-04-23T04:17:47.017Z,25.2346
2023-04-23T04:18:48.724Z,25.2942
2023-04-23T04:19:50.606Z,25.3785
2023-04-23T04:20:52.031Z,25.4973
2023-04-23T04:21:53.630Z,25.6269
2023-04-23T04:22:55.295Z,25.7762
2023-04-23T04:23:57.980Z,25.8592
2023-04-23T04:24:58.454Z,25.9169
2023-04-23T04:26:00.203Z,25.9635
2023-04-23T04:27:01.869Z,26.0035
2023-04-23T04:28:03.554Z,26.0119
2023-04-23T04:29:05.126Z,26.0719
2023-04-23T04:30:06.880Z,26.1346
2023-04-23T04:31:08.505Z,26.2200
2023-04-23T04:32:10.098Z,26.3177
2023-04-23T04:33:11.770Z,26.4277
2023-04-23T04:34:13.449Z,26.5127
2023-04-23T04:35:14.968Z,26.5677
2023-04-23T04:36:16.703Z,26.6408
2023-04-23T04:37:18.279Z,26.7254
2023-04-23T04:38:19.960Z,26.7735
2023-04-23T04:39:21.583Z,26.8231
2023-04-23T04:40:23.278Z,26.8923
2023-04-23T04:41:24.920Z,26.9415
2023-04-23T04:42:26.534Z,26.9727
2023-04-23T04:43:28.227Z,27.0227
2023-04-23T04:44:29.796Z,27.0304
2023-04-23T04:45:31.509Z,27.0465
2023-04-23T04:46:33.131Z,27.0785
2023-04-23T04:47:34.776Z,27.1104
2023-04-23T04:48:37.377Z,27.1588
2023-04-23T04:49:38.089Z,27.1873
2023-04-23T04:50:39.680Z,27.2231
2023-04-23T04:51:41.293Z,27.2519
2023-04-23T04:52:42.983Z,27.2735
2023-04-23T04:53:44.589Z,27.3050
2023-04-23T04:54:46.226Z,27.3419
2023-04-23T04:55:47.907Z,27.3812
2023-04-23T04:56:49.627Z,27.4223
2023-04-23T04:57:52.200Z,27.4481
2023-04-23T04:58:53.776Z,27.4700
2023-04-23T04:59:55.350Z,27.4988
2023-04-23T05:00:56.098Z,27.5342
2023-04-23T05:01:57.793Z,27.5608
2023-04-23T05:02:59.535Z,27.5838
2023-04-23T05:04:01.109Z,27.6196
2023-04-23T05:05:02.619Z,27.6396
2023-04-23T05:06:04.302Z,27.6673
2023-04-23T05:07:05.925Z,27.6877
2023-04-23T05:08:07.574Z,27.7196
2023-04-23T05:09:09.173Z,27.7450
2023-04-23T05:10:10.931Z,27.7658
2023-04-23T05:11:12.498Z,27.7804
2023-04-23T05:12:14.238Z,27.7962
2023-04-23T05:13:15.855Z,27.8092
2023-04-23T05:14:17.459Z,27.8335
2023-04-23T05:15:19.108Z,27.8562
2023-04-23T05:16:20.871Z,27.8958
2023-04-23T05:17:23.075Z,27.9177
2023-04-23T05:18:24.120Z,27.9488
2023-04-23T05:19:25.647Z,27.9681
2023-04-23T05:20:27.352Z,27.9800
2023-04-23T05:21:29.022Z,27.9781
2023-04-23T05:22:30.670Z,27.9896
2023-04-23T05:23:32.213Z,28.0273
2023-04-23T05:24:33.948Z,28.0565
2023-04-23T05:25:35.580Z,28.0750
2023-04-23T05:26:37.267Z,28.1004
2023-04-23T05:27:38.893Z,28.1450
2023-04-23T05:28:40.517Z,28.2012
2023-04-23T05:29:42.118Z,28.2231
2023-04-23T05:30:43.804Z,28.2346
2023-04-23T05:31:45.498Z,28.2504
2023-04-23T05:32:47.198Z,28.2746
2023-04-23T05:33:50.504Z,28.2919
2023-04-23T05:34:50.372Z,28.3096
2023-04-23T05:35:52.019Z,28.3215
2023-04-23T05:36:53.772Z,28.3377
2023-04-23T05:37:55.373Z,28.3496
2023-04-23T05:38:56.996Z,28.3685
2023-04-23T05:39:58.577Z,28.3892
2023-04-23T05:41:00.291Z,28.4177
2023-04-23T05:42:02.405Z,28.4362
2023-04-23T05:43:03.579Z,28.4604
2023-04-23T05:44:05.185Z,28.4746
2023-04-23T05:45:08.864Z,28.4904
2023-04-23T05:46:08.512Z,28.5269
2023-04-23T05:47:10.203Z,28.5477
2023-04-23T05:48:11.843Z,28.5727
2023-04-23T05:49:13.468Z,28.6004
2023-04-23T05:50:15.092Z,28.6092
2023-04-23T05:51:16.788Z,28.6185
2023-04-23T05:52:18.434Z,28.6242
2023-04-23T05:53:20.162Z,28.6423
2023-04-23T05:54:21.653Z,28.6662
2023-04-23T05:55:23.338Z,28.6831
2023-04-23T05:56:25.058Z,28.6912
2023-04-23T05:57:27.525Z,28.7288
2023-04-23T05:58:28.346Z,28.7388
2023-04-23T05:59:29.978Z,28.7446
2023-04-23T06:00:31.630Z,28.7515
2023-04-23T06:01:33.205Z,28.7458
2023-04-23T06:02:35.042Z,28.7681
2023-04-23T06:03:36.793Z,28.7958
2023-04-23T06:04:38.361Z,28.8042
2023-04-23T06:05:39.835Z,28.8254
2023-04-23T06:06:41.484Z,28.8623
2023-04-23T06:07:43.180Z,28.9050
2023-04-23T06:08:45.063Z,28.9242
2023-04-23T06:09:46.401Z,28.9288
2023-04-23T06:10:48.108Z,28.9681
2023-04-23T06:11:49.683Z,28.9888
2023-04-23T06:12:51.592Z,29.0112
2023-04-23T06:13:53.060Z,29.0358
2023-04-23T06:14:54.689Z,29.0523
2023-04-23T06:15:56.319Z,29.0738
2023-04-23T06:16:57.981Z,29.0850
2023-04-23T06:17:59.666Z,29.1135
2023-04-23T06:19:01.588Z,29.1450
2023-04-23T06:20:02.904Z,29.1773
2023-04-23T06:21:04.566Z,29.2042
2023-04-23T06:22:06.164Z,29.2212
2023-04-23T06:23:07.866Z,29.2496
2023-04-23T06:24:09.504Z,29.2742
2023-04-23T06:25:11.180Z,29.2923
2023-04-23T06:26:12.722Z,29.3096
2023-04-23T06:27:14.421Z,29.3269
2023-04-23T06:28:16.163Z,29.3446
2023-04-23T06:29:17.758Z,29.3531
2023-04-23T06:30:19.374Z,29.3708
2023-04-23T06:31:21.061Z,29.3727
2023-04-23T06:32:22.630Z,29.4019
2023-04-23T06:33:24.284Z,29.4331
2023-04-23T06:34:26.131Z,29.4692
2023-04-23T06:35:27.635Z,29.4965
2023-04-23T06:36:29.166Z,29.5019
2023-04-23T06:37:31.029Z,29.5165
2023-04-23T06:38:32.428Z,29.5300
2023-04-23T06:39:34.183Z,29.5742
2023-04-23T06:40:35.718Z,29.6008
2023-04-23T06:41:37.337Z,29.6304
2023-04-23T06:42:40.096Z,29.6531
2023-04-23T06:43:40.887Z,29.6938
2023-04-23T06:44:42.675Z,29.7235
2023-04-23T06:45:44.232Z,29.7473
2023-04-23T06:46:45.826Z,29.7677
2023-04-23T06:47:48.212Z,29.7858
2023-04-23T06:48:48.999Z,29.7985
2023-04-23T06:49:50.736Z,29.8181
2023-04-23T06:50:52.379Z,29.8492
2023-04-23T06:51:56.975Z,29.8919
2023-04-23T06:52:55.476Z,29.9223
2023-04-23T06:53:57.193Z,29.9585
2023-04-23T06:54:59.862Z,29.9919
2023-04-23T06:56:00.461Z,30.0131
2023-04-23T06:57:02.179Z,30.0558
2023-04-23T06:58:03.753Z,30.0354
2023-04-23T06:59:05.356Z,29.9038
2023-04-23T07:00:07.109Z,29.7450
2023-04-23T07:01:08.701Z,29.5154
2023-04-23T07:02:10.369Z,29.5585
2023-04-23T07:03:11.997Z,29.6869
2023-04-23T07:04:13.669Z,29.7592
2023-04-23T07:05:15.272Z,29.7946
2023-04-23T07:06:18.603Z,29.8292
2023-04-23T07:07:18.508Z,29.8642
2023-04-23T07:08:20.205Z,29.8942
2023-04-23T07:09:21.818Z,29.9442
2023-04-23T07:10:23.560Z,29.9885
2023-04-23T07:11:25.142Z,30.0173
2023-04-23T07:12:26.830Z,30.0415
2023-04-23T07:13:28.442Z,29.9904
2023-04-23T07:14:30.087Z,29.6769
2023-04-23T07:15:31.845Z,29.4862
2023-04-23T07:16:33.480Z,29.6427
2023-04-23T07:17:34.992Z,29.7627
2023-04-23T07:18:36.657Z,29.8050
2023-04-23T07:19:38.288Z,29.8435
2023-04-23T07:20:39.989Z,29.8792
2023-04-23T07:21:41.578Z,29.9062
2023-04-23T07:22:43.232Z,29.9442
2023-04-23T07:23:44.865Z,29.9962
2023-04-23T07:24:46.522Z,30.0269
2023-04-23T07:25:48.183Z,30.0550
2023-04-23T07:26:49.858Z,29.8765
2023-04-23T07:27:51.401Z,29.5965
2023-04-23T07:28:53.183Z,29.5450
2023-04-23T07:29:54.704Z,29.6965
2023-04-23T07:30:56.454Z,29.7838
2023-04-23T07:31:58.077Z,29.8504
2023-04-23T07:32:59.718Z,29.9404
2023-04-23T07:34:01.392Z,30.0031
2023-04-23T07:35:02.975Z,30.0385
2023-04-23T07:36:04.598Z,30.1023
2023-04-23T07:37:06.316Z,29.9042
2023-04-23T07:38:07.860Z,29.5642
2023-04-23T07:39:09.545Z,29.2838
2023-04-23T07:40:11.189Z,29.4677
2023-04-23T07:41:12.914Z,29.6992
2023-04-23T07:42:15.068Z,29.8077
2023-04-23T07:43:16.142Z,29.8881
2023-04-23T07:44:17.761Z,29.9373
2023-04-23T07:45:19.500Z,29.9873
2023-04-23T07:46:21.146Z,30.0227
2023-04-23T07:47:23.002Z,30.0496
2023-04-23T07:48:24.413Z,30.0512
2023-04-23T07:49:26.021Z,29.7988
2023-04-23T07:50:27.637Z,29.4958
2023-04-23T07:51:29.351Z,29.4892
2023-04-23T07:52:30.957Z,29.5627
2023-04-23T07:53:32.577Z,29.6531
2023-04-23T07:54:34.207Z,29.7150
2023-04-23T07:55:35.917Z,29.7404
2023-04-23T07:56:37.597Z,29.7492
2023-04-23T07:57:39.241Z,29.7654
2023-04-23T07:58:40.815Z,29.7750
2023-04-23T07:59:42.863Z,29.7746
2023-04-23T08:00:44.088Z,29.7731
2023-04-23T08:01:45.820Z,29.7792
2023-04-23T08:02:47.614Z,29.7838
2023-04-23T08:03:49.440Z,29.7919
2023-04-23T08:04:50.827Z,29.8012
2023-04-23T08:05:52.336Z,29.8004
2023-04-23T08:06:54.045Z,29.8038
2023-04-23T08:07:55.645Z,29.8085
2023-04-23T08:08:57.308Z,29.8081
2023-04-23T08:09:58.900Z,29.7992
2023-04-23T08:11:00.547Z,29.8019
2023-04-23T08:12:02.236Z,29.7965
2023-04-23T08:13:03.902Z,29.7950
2023-04-23T08:14:05.496Z,29.7931
2023-04-23T08:15:07.220Z,29.7869
2023-04-23T08:16:08.790Z,29.7950
2023-04-23T08:17:10.463Z,29.7919
2023-04-23T08:18:12.107Z,29.7904
2023-04-23T08:19:13.706Z,29.7823
2023-04-23T08:20:15.302Z,29.7854
2023-04-23T08:21:17.031Z,29.7835
2023-04-23T08:22:20.293Z,29.7835
2023-04-23T08:23:20.353Z,29.7881
2023-04-23T08:24:22.456Z,29.7881
2023-04-23T08:25:23.603Z,29.7831
2023-04-23T08:26:25.214Z,29.7823
2023-04-23T08:27:26.971Z,29.7792
2023-04-23T08:28:28.593Z,29.7788
2023-04-23T08:29:30.208Z,29.7781
2023-04-23T08:30:31.789Z,29.7808
2023-04-23T08:31:33.509Z,29.7785
2023-04-23T08:32:35.158Z,29.7850
2023-04-23T08:33:36.875Z,29.7877
2023-04-23T08:34:38.442Z,29.7996
2023-04-23T08:35:40.078Z,29.7865
2023-04-23T08:36:41.649Z,29.7885
2023-04-23T08:37:43.444Z,29.8046
2023-04-23T08:38:44.989Z,29.8050
2023-04-23T08:39:46.686Z,29.8119
2023-04-23T08:40:48.227Z,29.8208
2023-04-23T08:41:49.926Z,29.8265
2023-04-23T08:42:51.644Z,29.8377
2023-04-23T08:43:53.238Z,29.8462
2023-04-23T08:44:54.801Z,29.8573
2023-04-23T08:45:56.510Z,29.8600
2023-04-23T08:46:58.248Z,29.8473
2023-04-23T08:48:02.134Z,29.8523
2023-04-23T08:49:01.452Z,29.8746
2023-04-23T08:50:03.074Z,29.8681
2023-04-23T08:51:04.690Z,29.8754
2023-04-23T08:52:06.380Z,29.8481
2023-04-23T08:53:08.065Z,29.6977
2023-04-23T08:54:09.679Z,29.4942
2023-04-23T08:55:11.255Z,29.3415
2023-04-23T08:56:12.940Z,29.1685
2023-04-23T08:57:14.574Z,29.0462
2023-04-23T08:58:16.279Z,29.0408
2023-04-23T08:59:17.911Z,29.0750
2023-04-23T09:00:19.455Z,29.1481
2023-04-23T09:01:21.297Z,29.2273
2023-04-23T09:02:22.986Z,29.2835
2023-04-23T09:03:24.547Z,29.3242
2023-04-23T09:04:26.164Z,29.3612
2023-04-23T09:05:27.710Z,29.3938
2023-04-23T09:06:29.422Z,29.4158
2023-04-23T09:07:31.023Z,29.4508
2023-04-23T09:08:32.753Z,29.4642
2023-04-23T09:09:34.641Z,29.4688
2023-04-23T09:10:35.974Z,29.4912
2023-04-23T09:11:37.577Z,29.5050
2023-04-23T09:12:39.276Z,29.5150
2023-04-23T09:13:40.950Z,29.5227
2023-04-23T09:14:42.852Z,29.5085
2023-04-23T09:15:44.169Z,29.5112
2023-04-23T09:16:45.922Z,29.5096
2023-04-23T09:17:47.529Z,29.5115
2023-04-23T09:18:49.194Z,29.5150
2023-04-23T09:19:50.858Z,29.5131
2023-04-23T09:20:52.528Z,29.5319
2023-04-23T09:21:54.046Z,29.5558
2023-04-23T09:22:55.727Z,29.5665
2023-04-23T09:23:57.449Z,29.5904
2023-04-23T09:24:59.090Z,29.6223
2023-04-23T09:26:00.627Z,29.6462
2023-04-23T09:27:02.267Z,29.6677
2023-04-23T09:28:03.958Z,29.6985
2023-04-23T09:29:05.609Z,29.7104
2023-04-23T09:30:07.294Z,29.7304
2023-04-23T09:31:08.879Z,29.7512
2023-04-23T09:32:10.586Z,29.7531
2023-04-23T09:33:12.151Z,29.7542
2023-04-23T09:34:14.206Z,29.7531
2023-04-23T09:35:15.554Z,29.7512
2023-04-23T09:36:17.233Z,29.7592
2023-04-23T09:37:18.783Z,29.7635
2023-04-23T09:38:20.428Z,29.7769
2023-04-23T09:39:22.065Z,29.7888
2023-04-23T09:40:23.749Z,29.7935
2023-04-23T09:41:25.304Z,29.8031
2023-04-23T09:42:26.986Z,29.8346
2023-04-23T09:43:28.575Z,29.8696
2023-04-23T09:44:30.353Z,29.8954
2023-04-23T09:45:31.945Z,29.9377
2023-04-23T09:46:33.562Z,29.9781
2023-04-23T09:47:35.252Z,30.0123
2023-04-23T09:48:36.879Z,30.0569
2023-04-23T09:49:38.534Z,30.1173
2023-04-23T09:50:40.245Z,30.1681
2023-04-23T09:51:41.769Z,30.2165
2023-04-23T09:52:43.431Z,30.2338
2023-04-23T09:53:45.056Z,30.2450
2023-04-23T09:54:47.214Z,30.0869
2023-04-23T09:55:48.397Z,29.9477
2023-04-23T09:56:50.076Z,29.8008
2023-04-23T09:57:51.611Z,29.6138
2023-04-23T09:58:53.366Z,29.4750
2023-04-23T10:00:03.754Z,29.4827
2023-04-23T10:00:56.638Z,29.5573
2023-04-23T10:01:58.289Z,29.6623
2023-04-23T10:03:00.168Z,29.7281
2023-04-23T10:04:01.694Z,29.7785
2023-04-23T10:05:21.468Z,29.8131
2023-04-23T10:06:05.264Z,29.8573
2023-04-23T10:07:17.923Z,29.9096
2023-04-23T10:08:08.232Z,29.9723
2023-04-23T10:09:09.704Z,30.0127
2023-04-23T10:10:11.463Z,30.0581
2023-04-23T10:11:20.734Z,30.1042
2023-04-23T10:13:16.302Z,30.2235
2023-04-23T10:14:17.962Z,30.2700
2023-04-23T10:15:19.684Z,30.3188
2023-04-23T10:16:23.284Z,30.3850
2023-04-23T10:17:22.932Z,30.4208
2023-04-23T10:18:24.492Z,30.4519
2023-04-23T10:19:27.171Z,30.4558
2023-04-23T10:20:27.878Z,30.4427
2023-04-23T10:21:36.620Z,30.4738
2023-04-23T10:22:31.067Z,30.4835
2023-04-23T10:23:32.802Z,30.4700
2023-04-23T10:24:34.371Z,30.4238
2023-04-23T10:25:36.729Z,30.4562
2023-04-23T10:26:38.190Z,30.4977
2023-04-23T10:27:51.118Z,30.5273
2023-04-23T10:28:41.042Z,30.5481
2023-04-23T10:29:43.017Z,30.5323
2023-04-23T10:30:44.681Z,30.5542
2023-04-23T10:31:45.980Z,30.5569
2023-04-23T10:32:47.561Z,30.5381
2023-04-23T10:33:58.204Z,30.5546
2023-04-23T10:34:50.931Z,30.5796
2023-04-23T10:35:52.601Z,30.6119
2023-04-23T10:36:54.181Z,30.6158
2023-04-23T10:37:55.844Z,30.5765
2023-04-23T10:38:59.106Z,30.5342
2023-04-23T10:39:59.132Z,30.5104
2023-04-23T10:41:00.801Z,30.5323
2023-04-23T10:42:02.466Z,30.5627
2023-04-23T10:43:04.026Z,30.6004
2023-04-23T10:44:05.723Z,30.6123
2023-04-23T10:45:16.613Z,30.5896
2023-04-23T10:46:09.139Z,30.5577
2023-04-23T10:47:10.738Z,30.5412
2023-04-23T10:48:12.460Z,30.5558
2023-04-23T10:49:14.016Z,30.5385
2023-04-23T10:50:15.744Z,30.5454
2023-04-23T10:51:56.084Z,30.5442
2023-04-23T10:52:21.495Z,30.5365
2023-04-23T10:53:20.604Z,30.5365
2023-04-23T10:54:22.319Z,30.5062
2023-04-23T10:55:23.969Z,30.5023
2023-04-23T10:56:25.789Z,30.5181
2023-04-23T10:57:27.271Z,30.5269
2023-04-23T10:58:28.943Z,30.5531
2023-04-23T10:59:30.465Z,30.5615
2023-04-23T11:00:32.164Z,30.5458
2023-04-23T11:01:33.827Z,30.5023
2023-04-23T11:02:35.607Z,30.4350
2023-04-23T11:03:39.646Z,30.4381
2023-04-23T11:04:38.834Z,30.4842
2023-04-23T11:05:40.389Z,30.5319
2023-04-23T11:06:42.089Z,30.5735
2023-04-23T11:07:43.750Z,30.5969
2023-04-23T11:08:45.426Z,30.6215
2023-04-23T11:09:47.013Z,30.6554
2023-04-23T11:10:48.667Z,30.6681
2023-04-23T11:11:50.288Z,30.6938
2023-04-23T11:12:52.027Z,30.6242
2023-04-23T11:13:53.621Z,30.5554
2023-04-23T11:14:55.307Z,30.5885
2023-04-23T11:15:56.907Z,30.5904
2023-04-23T11:16:58.530Z,30.6558
2023-04-23T11:18:00.216Z,30.6831
2023-04-23T11:19:01.911Z,30.6977
2023-04-23T11:20:03.558Z,30.6300
2023-04-23T11:21:05.187Z,30.3838
2023-04-23T11:22:06.767Z,30.3346
2023-04-23T11:23:08.462Z,30.2812
2023-04-23T11:24:10.097Z,30.2442
2023-04-23T11:25:11.842Z,30.2092
2023-04-23T11:26:13.424Z,30.1273
2023-04-23T11:27:15.044Z,30.1481
2023-04-23T11:28:16.694Z,30.1554
2023-04-23T11:29:18.339Z,30.1446
2023-04-23T11:30:19.962Z,30.2073
2023-04-23T11:31:21.656Z,30.2562
2023-04-23T11:32:23.298Z,30.2919
2023-04-23T11:33:24.927Z,30.3496
2023-04-23T11:34:26.604Z,30.3946
2023-04-23T11:35:28.167Z,30.3631
2023-04-23T11:36:30.699Z,30.3154
2023-04-23T11:37:31.480Z,30.2973
2023-04-23T11:38:33.056Z,30.2758
2023-04-23T11:39:34.733Z,30.2650
2023-04-23T11:40:36.643Z,30.2108
2023-04-23T11:41:38.087Z,30.1285
2023-04-23T11:42:39.664Z,30.0750
2023-04-23T11:43:42.212Z,30.0723
2023-04-23T11:44:42.972Z,30.1346
2023-04-23T11:45:44.701Z,30.2138
2023-04-23T11:46:46.272Z,30.2750
2023-04-23T11:47:47.962Z,30.3288
2023-04-23T11:48:49.562Z,30.3973
2023-04-23T11:49:51.271Z,30.4512
2023-04-23T11:50:53.130Z,30.4365
2023-04-23T11:51:54.611Z,30.3562
2023-04-23T11:52:56.201Z,30.2246
2023-04-23T11:53:57.906Z,30.2288
2023-04-23T11:54:59.467Z,30.2808
2023-04-23T11:56:01.219Z,30.3258
2023-04-23T11:57:02.788Z,30.3096
2023-04-23T11:58:04.472Z,30.3823
2023-04-23T11:59:06.069Z,30.4658
2023-04-23T12:00:07.763Z,30.5435
2023-04-23T12:01:09.448Z,30.5777
2023-04-23T12:02:11.100Z,30.6331
2023-04-23T12:03:12.936Z,30.6035
2023-04-23T12:04:14.662Z,30.5108
2023-04-23T12:05:16.154Z,30.4231
2023-04-23T12:06:17.883Z,30.3488
2023-04-23T12:07:26.341Z,30.3446
2023-04-23T12:08:21.140Z,30.4727
2023-04-23T12:09:23.725Z,30.5515
2023-04-23T12:10:24.392Z,30.6373
2023-04-23T12:11:26.122Z,30.5669
2023-04-23T12:12:27.738Z,30.4977
2023-04-23T12:13:29.407Z,30.4712
2023-04-23T12:14:31.176Z,30.4412
2023-04-23T12:15:32.780Z,30.4888
2023-04-23T12:16:34.271Z,30.5296
2023-04-23T12:17:35.997Z,30.5758
2023-04-23T12:18:37.680Z,30.6492
2023-04-23T12:19:39.380Z,30.6862
2023-04-23T12:20:40.888Z,30.7254
2023-04-23T12:21:42.685Z,30.7000
2023-04-23T12:22:44.193Z,30.6469
2023-04-23T12:23:45.915Z,30.5558
2023-04-23T12:24:47.416Z,30.5404
2023-04-23T12:25:49.193Z,30.4696
2023-04-23T12:26:50.810Z,30.4146